Flugplatz Saulgau

Für EDTU sind keine METAR/TAF Berichte vorhanden.
Es werden die Flugwettermeldungen vom Flugplatz Laupheim Airport in 36 km Entfernung angezeigt.

Bericht für ETHL

vom 11.08. um 23:20 UTC

Wind 4 kt aus 40°

Sichtweite 5000 m

Temperatur 20.0°C

Taupunkt 17.0°C

Luftfeuchtigkeit 83%

Luftdruck 1018 hPa

ETHL 112320Z AUTO 04004KT 5000 // ////// 20/17 Q1018 ///
Keine Prognose (TAF) verfügbar.
Impressum